sensor_id;sensor_type;location;lat;lon;timestamp;pressure;altitude;pressure_sealevel;temperature;humidity
29907;BME280;16776;50.958;10.994;2023-06-26T00:01:12;98470.34;;;19.71;90.87
29907;BME280;16776;50.958;10.994;2023-06-26T00:03:39;98472.16;;;19.70;90.59
29907;BME280;16776;50.958;10.994;2023-06-26T00:06:05;98466.19;;;19.68;91.04
29907;BME280;16776;50.958;10.994;2023-06-26T00:08:32;98472.25;;;19.69;90.62
29907;BME280;16776;50.958;10.994;2023-06-26T00:10:58;98472.25;;;19.69;91.01
29907;BME280;16776;50.958;10.994;2023-06-26T00:13:28;98462.72;;;19.68;90.65
29907;BME280;16776;50.958;10.994;2023-06-26T00:15:56;98459.09;;;19.70;90.99
29907;BME280;16776;50.958;10.994;2023-06-26T00:18:22;98462.81;;;19.66;91.12
29907;BME280;16776;50.958;10.994;2023-06-26T00:20:52;98466.28;;;19.67;91.23
29907;BME280;16776;50.958;10.994;2023-06-26T00:23:18;98467.97;;;19.68;91.18
29907;BME280;16776;50.958;10.994;2023-06-26T00:25:45;98465.34;;;19.68;91.36
29907;BME280;16776;50.958;10.994;2023-06-26T00:28:11;98458.44;;;19.67;91.37
29907;BME280;16776;50.958;10.994;2023-06-26T00:30:38;98460.22;;;19.66;91.41
29907;BME280;16776;50.958;10.994;2023-06-26T00:33:06;98459.28;;;19.67;91.20
29907;BME280;16776;50.958;10.994;2023-06-26T00:35:32;98454.16;;;19.66;91.38
29907;BME280;16776;50.958;10.994;2023-06-26T00:38:00;98458.66;;;19.64;91.44
29907;BME280;16776;50.958;10.994;2023-06-26T00:40:27;98452.59;;;19.63;91.53
29907;BME280;16776;50.958;10.994;2023-06-26T00:42:55;98455.06;;;19.65;91.32
29907;BME280;16776;50.958;10.994;2023-06-26T00:45:22;98457.16;;;19.60;91.54
29907;BME280;16776;50.958;10.994;2023-06-26T00:47:48;98449.44;;;19.58;91.72
29907;BME280;16776;50.958;10.994;2023-06-26T00:50:16;98447.56;;;19.60;91.59
29907;BME280;16776;50.958;10.994;2023-06-26T00:52:43;98446.09;;;19.56;91.72
29907;BME280;16776;50.958;10.994;2023-06-26T00:55:10;98447.03;;;19.55;91.78
29907;BME280;16776;50.958;10.994;2023-06-26T00:57:40;98437.59;;;19.53;91.86
29907;BME280;16776;50.958;10.994;2023-06-26T01:00:07;98445.56;;;19.51;92.01
29907;BME280;16776;50.958;10.994;2023-06-26T01:02:35;98442.31;;;19.48;91.86
29907;BME280;16776;50.958;10.994;2023-06-26T01:05:07;98440.53;;;19.48;92.15
29907;BME280;16776;50.958;10.994;2023-06-26T01:07:39;98441.47;;;19.47;92.17
29907;BME280;16776;50.958;10.994;2023-06-26T01:10:07;98431.44;;;19.41;92.25
29907;BME280;16776;50.958;10.994;2023-06-26T01:12:34;98419.53;;;19.37;92.26
29907;BME280;16776;50.958;10.994;2023-06-26T01:15:01;98430.81;;;19.38;92.52
29907;BME280;16776;50.958;10.994;2023-06-26T01:17:27;98427.44;;;19.35;92.32
29907;BME280;16776;50.958;10.994;2023-06-26T01:19:57;98425.78;;;19.34;92.48
29907;BME280;16776;50.958;10.994;2023-06-26T01:22:29;98426.44;;;19.38;92.34
29907;BME280;16776;50.958;10.994;2023-06-26T01:25:03;98425.47;;;19.39;92.46
29907;BME280;16776;50.958;10.994;2023-06-26T01:27:38;98425.03;;;19.32;92.38
29907;BME280;16776;50.958;10.994;2023-06-26T01:30:06;98421.78;;;19.29;92.64
29907;BME280;16776;50.958;10.994;2023-06-26T01:32:36;98415.53;;;19.31;92.61
29907;BME280;16776;50.958;10.994;2023-06-26T01:35:04;98413.44;;;19.24;92.55
29907;BME280;16776;50.958;10.994;2023-06-26T01:37:32;98413.63;;;19.21;92.76
29907;BME280;16776;50.958;10.994;2023-06-26T01:40:00;98404.19;;;19.18;92.96
29907;BME280;16776;50.958;10.994;2023-06-26T01:42:30;98407.75;;;19.17;92.65
29907;BME280;16776;50.958;10.994;2023-06-26T01:45:00;98407.56;;;19.20;92.80
29907;BME280;16776;50.958;10.994;2023-06-26T01:47:28;98402.69;;;19.14;93.03
29907;BME280;16776;50.958;10.994;2023-06-26T01:50:02;98399.16;;;19.15;93.00
29907;BME280;16776;50.958;10.994;2023-06-26T01:52:39;98395.00;;;19.13;92.90
29907;BME280;16776;50.958;10.994;2023-06-26T01:55:12;98396.03;;;19.10;92.92
29907;BME280;16776;50.958;10.994;2023-06-26T01:57:42;98399.97;;;19.03;93.03
29907;BME280;16776;50.958;10.994;2023-06-26T02:00:11;98398.28;;;19.02;93.23
29907;BME280;16776;50.958;10.994;2023-06-26T02:02:40;98395.22;;;18.95;93.30
29907;BME280;16776;50.958;10.994;2023-06-26T02:05:07;98400.75;;;18.91;93.42
29907;BME280;16776;50.958;10.994;2023-06-26T02:07:34;98400.94;;;18.88;93.57
29907;BME280;16776;50.958;10.994;2023-06-26T02:10:00;98399.47;;;18.84;93.56
29907;BME280;16776;50.958;10.994;2023-06-26T02:12:27;98398.84;;;18.80;93.52
29907;BME280;16776;50.958;10.994;2023-06-26T02:14:54;98400.88;;;18.75;93.65
29907;BME280;16776;50.958;10.994;2023-06-26T02:17:21;98407.91;;;18.75;93.54
29907;BME280;16776;50.958;10.994;2023-06-26T02:19:48;98403.88;;;18.69;93.97
29907;BME280;16776;50.958;10.994;2023-06-26T02:22:15;98396.00;;;18.56;93.85
29907;BME280;16776;50.958;10.994;2023-06-26T02:24:42;98412.22;;;18.62;93.95
29907;BME280;16776;50.958;10.994;2023-06-26T02:27:09;98407.28;;;18.57;94.22
29907;BME280;16776;50.958;10.994;2023-06-26T02:29:35;98399.75;;;18.52;94.02
29907;BME280;16776;50.958;10.994;2023-06-26T02:32:03;98409.53;;;18.49;93.94
29907;BME280;16776;50.958;10.994;2023-06-26T02:34:31;98407.03;;;18.47;94.07
29907;BME280;16776;50.958;10.994;2023-06-26T02:36:58;98400.47;;;18.40;94.52
29907;BME280;16776;50.958;10.994;2023-06-26T02:39:25;98400.88;;;18.34;94.44
29907;BME280;16776;50.958;10.994;2023-06-26T02:41:52;98400.31;;;18.29;94.67
29907;BME280;16776;50.958;10.994;2023-06-26T02:44:19;98400.56;;;18.25;94.84
29907;BME280;16776;50.958;10.994;2023-06-26T02:46:50;98405.25;;;18.19;94.59
29907;BME280;16776;50.958;10.994;2023-06-26T02:49:16;98396.88;;;18.14;94.98
29907;BME280;16776;50.958;10.994;2023-06-26T02:51:44;98403.00;;;18.13;95.05
29907;BME280;16776;50.958;10.994;2023-06-26T02:54:11;98398.19;;;18.07;95.05
29907;BME280;16776;50.958;10.994;2023-06-26T02:56:37;98392.31;;;18.04;94.99
29907;BME280;16776;50.958;10.994;2023-06-26T02:59:04;98394.25;;;18.00;95.09
29907;BME280;16776;50.958;10.994;2023-06-26T03:01:34;98393.63;;;17.97;94.89
29907;BME280;16776;50.958;10.994;2023-06-26T03:04:00;98388.66;;;17.92;95.22
29907;BME280;16776;50.958;10.994;2023-06-26T03:06:27;98385.44;;;17.89;95.48
29907;BME280;16776;50.958;10.994;2023-06-26T03:08:55;98382.81;;;17.89;95.39
29907;BME280;16776;50.958;10.994;2023-06-26T03:11:21;98383.94;;;17.85;95.84
29907;BME280;16776;50.958;10.994;2023-06-26T03:13:48;98384.03;;;17.83;95.54
29907;BME280;16776;50.958;10.994;2023-06-26T03:16:17;98380.59;;;17.83;95.79
29907;BME280;16776;50.958;10.994;2023-06-26T03:18:44;98384.97;;;17.82;95.61
29907;BME280;16776;50.958;10.994;2023-06-26T03:21:10;98373.78;;;17.80;95.57
29907;BME280;16776;50.958;10.994;2023-06-26T03:23:37;98379.84;;;17.81;95.74
29907;BME280;16776;50.958;10.994;2023-06-26T03:26:05;98381.34;;;17.85;95.43
29907;BME280;16776;50.958;10.994;2023-06-26T03:28:31;98385.88;;;17.81;95.72
29907;BME280;16776;50.958;10.994;2023-06-26T03:30:58;98384.97;;;17.82;95.80
29907;BME280;16776;50.958;10.994;2023-06-26T03:33:24;98380.59;;;17.83;95.99
29907;BME280;16776;50.958;10.994;2023-06-26T03:35:51;98383.94;;;17.85;95.82
29907;BME280;16776;50.958;10.994;2023-06-26T03:38:17;98381.34;;;17.85;95.78
29907;BME280;16776;50.958;10.994;2023-06-26T03:40:44;98379.47;;;17.87;95.98
29907;BME280;16776;50.958;10.994;2023-06-26T03:43:12;98374.09;;;17.90;95.87
29907;BME280;16776;50.958;10.994;2023-06-26T03:45:38;98379.38;;;17.88;96.13
29907;BME280;16776;50.958;10.994;2023-06-26T03:48:05;98376.69;;;17.90;96.00
29907;BME280;16776;50.958;10.994;2023-06-26T03:50:33;98367.94;;;17.91;96.25
29907;BME280;16776;50.958;10.994;2023-06-26T03:53:00;98366.25;;;17.90;96.35
29907;BME280;16776;50.958;10.994;2023-06-26T03:55:27;98367.00;;;17.92;96.34
29907;BME280;16776;50.958;10.994;2023-06-26T03:57:56;98360.75;;;17.94;98.31
29907;BME280;16776;50.958;10.994;2023-06-26T04:00:24;98361.22;;;18.01;97.62
29907;BME280;16776;50.958;10.994;2023-06-26T04:02:50;98360.84;;;18.07;97.28
29907;BME280;16776;50.958;10.994;2023-06-26T04:05:17;98357.69;;;18.16;97.42
29907;BME280;16776;50.958;10.994;2023-06-26T04:07:45;98369.13;;;18.28;97.38
29907;BME280;16776;50.958;10.994;2023-06-26T04:10:11;98367.72;;;18.36;97.38
29907;BME280;16776;50.958;10.994;2023-06-26T04:12:38;98361.91;;;18.45;97.15
29907;BME280;16776;50.958;10.994;2023-06-26T04:15:06;98362.09;;;18.56;97.07
29907;BME280;16776;50.958;10.994;2023-06-26T04:17:37;98362.44;;;18.65;96.86
29907;BME280;16776;50.958;10.994;2023-06-26T04:20:05;98367.94;;;18.74;96.79
29907;BME280;16776;50.958;10.994;2023-06-26T04:22:32;98369.94;;;18.83;97.03
29907;BME280;16776;50.958;10.994;2023-06-26T04:25:01;98364.75;;;18.96;97.13
29907;BME280;16776;50.958;10.994;2023-06-26T04:27:28;98361.34;;;19.08;96.80
29907;BME280;16776;50.958;10.994;2023-06-26T04:29:55;98363.34;;;19.17;96.62
29907;BME280;16776;50.958;10.994;2023-06-26T04:32:24;98368.00;;;19.26;96.66
29907;BME280;16776;50.958;10.994;2023-06-26T04:34:51;98362.34;;;19.32;96.45
29907;BME280;16776;50.958;10.994;2023-06-26T04:37:19;98366.66;;;19.33;96.20
29907;BME280;16776;50.958;10.994;2023-06-26T04:39:47;98362.69;;;19.41;96.51
29907;BME280;16776;50.958;10.994;2023-06-26T04:42:16;98358.31;;;19.41;96.44
29907;BME280;16776;50.958;10.994;2023-06-26T04:44:44;98355.28;;;19.47;96.52
29907;BME280;16776;50.958;10.994;2023-06-26T04:47:10;98358.31;;;19.54;96.28
29907;BME280;16776;50.958;10.994;2023-06-26T04:49:40;98355.19;;;19.61;96.14
29907;BME280;16776;50.958;10.994;2023-06-26T04:52:12;98352.69;;;19.72;96.20
29907;BME280;16776;50.958;10.994;2023-06-26T04:54:41;98349.78;;;19.77;96.21
29907;BME280;16776;50.958;10.994;2023-06-26T04:57:07;98345.75;;;19.84;96.44
29907;BME280;16776;50.958;10.994;2023-06-26T04:59:36;98354.06;;;19.91;96.05
29907;BME280;16776;50.958;10.994;2023-06-26T05:02:03;98344.00;;;19.97;96.02
29907;BME280;16776;50.958;10.994;2023-06-26T05:04:30;98345.38;;;20.03;96.14
29907;BME280;16776;50.958;10.994;2023-06-26T05:06:57;98344.81;;;20.10;96.18
29907;BME280;16776;50.958;10.994;2023-06-26T05:09:24;98345.97;;;20.19;96.30
29907;BME280;16776;50.958;10.994;2023-06-26T05:11:51;98340.41;;;20.24;96.29
29907;BME280;16776;50.958;10.994;2023-06-26T05:14:19;98335.38;;;20.33;96.32
29907;BME280;16776;50.958;10.994;2023-06-26T05:16:45;98339.09;;;20.42;96.84
29907;BME280;16776;50.958;10.994;2023-06-26T05:19:12;98334.88;;;20.52;96.83
29907;BME280;16776;50.958;10.994;2023-06-26T05:21:39;98339.38;;;20.63;96.79
29907;BME280;16776;50.958;10.994;2023-06-26T05:24:08;98333.47;;;20.72;96.82
29907;BME280;16776;50.958;10.994;2023-06-26T05:26:37;98330.81;;;20.84;96.65
29907;BME280;16776;50.958;10.994;2023-06-26T05:29:04;98329.41;;;20.91;96.28
29907;BME280;16776;50.958;10.994;2023-06-26T05:31:32;98329.31;;;21.04;96.44
29907;BME280;16776;50.958;10.994;2023-06-26T05:34:02;98331.03;;;21.16;96.83
29907;BME280;16776;50.958;10.994;2023-06-26T05:36:29;98330.50;;;21.24;96.55
29907;BME280;16776;50.958;10.994;2023-06-26T05:39:01;98331.84;;;21.41;96.14
29907;BME280;16776;50.958;10.994;2023-06-26T05:41:29;98326.97;;;21.47;96.31
29907;BME280;16776;50.958;10.994;2023-06-26T05:43:57;98333.78;;;21.61;96.53
29907;BME280;16776;50.958;10.994;2023-06-26T05:46:23;98327.69;;;21.71;97.20
29907;BME280;16776;50.958;10.994;2023-06-26T05:48:50;98323.91;;;21.87;97.12
29907;BME280;16776;50.958;10.994;2023-06-26T05:51:17;98325.22;;;22.03;96.49
29907;BME280;16776;50.958;10.994;2023-06-26T05:53:48;98318.41;;;22.23;96.09
29907;BME280;16776;50.958;10.994;2023-06-26T05:56:15;98317.81;;;22.31;97.12
29907;BME280;16776;50.958;10.994;2023-06-26T05:58:45;98323.38;;;22.48;96.76
29907;BME280;16776;50.958;10.994;2023-06-26T06:01:14;98323.13;;;22.63;96.39
29907;BME280;16776;50.958;10.994;2023-06-26T06:03:40;98321.16;;;22.76;96.74
29907;BME280;16776;50.958;10.994;2023-06-26T06:06:08;98318.09;;;22.91;96.31
29907;BME280;16776;50.958;10.994;2023-06-26T06:08:35;98321.28;;;23.06;96.35
29907;BME280;16776;50.958;10.994;2023-06-26T06:11:04;98324.06;;;23.25;95.90
29907;BME280;16776;50.958;10.994;2023-06-26T06:13:30;98324.00;;;23.37;95.75
29907;BME280;16776;50.958;10.994;2023-06-26T06:15:59;98324.09;;;23.56;95.98
29907;BME280;16776;50.958;10.994;2023-06-26T06:18:27;98325.69;;;23.68;96.19
29907;BME280;16776;50.958;10.994;2023-06-26T06:20:54;98316.53;;;23.83;95.59
29907;BME280;16776;50.958;10.994;2023-06-26T06:23:21;98315.88;;;24.00;95.11
29907;BME280;16776;50.958;10.994;2023-06-26T06:25:48;98312.47;;;24.19;94.75
29907;BME280;16776;50.958;10.994;2023-06-26T06:28:15;98312.56;;;24.38;94.37
29907;BME280;16776;50.958;10.994;2023-06-26T06:30:42;98315.63;;;24.53;93.94
29907;BME280;16776;50.958;10.994;2023-06-26T06:33:09;98305.56;;;24.68;94.44
29907;BME280;16776;50.958;10.994;2023-06-26T06:35:37;98316.91;;;24.87;93.92
29907;BME280;16776;50.958;10.994;2023-06-26T06:38:03;98312.25;;;25.01;93.34
29907;BME280;16776;50.958;10.994;2023-06-26T06:40:30;98311.81;;;25.15;93.40
29907;BME280;16776;50.958;10.994;2023-06-26T06:42:56;98309.56;;;25.29;94.04
29907;BME280;16776;50.958;10.994;2023-06-26T06:45:23;98300.09;;;25.46;93.12
29907;BME280;16776;50.958;10.994;2023-06-26T06:47:49;98291.72;;;25.60;92.58
29907;BME280;16776;50.958;10.994;2023-06-26T06:50:16;98303.50;;;25.76;92.56
29907;BME280;16776;50.958;10.994;2023-06-26T06:52:47;98306.50;;;25.90;92.68
29907;BME280;16776;50.958;10.994;2023-06-26T06:55:14;98304.75;;;25.99;93.49
29907;BME280;16776;50.958;10.994;2023-06-26T06:57:41;98306.28;;;26.11;93.67
29907;BME280;16776;50.958;10.994;2023-06-26T07:00:09;98303.81;;;26.27;93.37
29907;BME280;16776;50.958;10.994;2023-06-26T07:02:36;98299.72;;;26.42;92.51
29907;BME280;16776;50.958;10.994;2023-06-26T07:05:03;98296.53;;;26.57;92.23
29907;BME280;16776;50.958;10.994;2023-06-26T07:07:30;98289.25;;;26.68;92.62
29907;BME280;16776;50.958;10.994;2023-06-26T07:09:59;98293.84;;;26.84;92.00
29907;BME280;16776;50.958;10.994;2023-06-26T07:12:26;98283.22;;;26.94;91.55
29907;BME280;16776;50.958;10.994;2023-06-26T07:14:52;98289.72;;;27.07;92.49
29907;BME280;16776;50.958;10.994;2023-06-26T07:17:19;98289.22;;;27.21;92.14
29907;BME280;16776;50.958;10.994;2023-06-26T07:19:46;98287.53;;;27.38;92.27
29907;BME280;16776;50.958;10.994;2023-06-26T07:22:12;98286.78;;;27.54;92.16
29907;BME280;16776;50.958;10.994;2023-06-26T07:24:42;98281.44;;;27.72;91.65
29907;BME280;16776;50.958;10.994;2023-06-26T07:27:13;98278.72;;;27.89;92.74
29907;BME280;16776;50.958;10.994;2023-06-26T07:29:39;98286.03;;;28.03;92.69
29907;BME280;16776;50.958;10.994;2023-06-26T07:32:07;98277.22;;;28.21;91.80
29907;BME280;16776;50.958;10.994;2023-06-26T07:34:35;98281.69;;;28.36;90.88
29907;BME280;16776;50.958;10.994;2023-06-26T07:37:02;98278.59;;;28.49;91.52
29907;BME280;16776;50.958;10.994;2023-06-26T07:39:29;98264.53;;;28.57;91.13
29907;BME280;16776;50.958;10.994;2023-06-26T07:41:59;98279.31;;;28.75;90.56
29907;BME280;16776;50.958;10.994;2023-06-26T07:44:30;98282.13;;;28.90;90.78
29907;BME280;16776;50.958;10.994;2023-06-26T07:46:57;98281.13;;;28.99;90.05
29907;BME280;16776;50.958;10.994;2023-06-26T07:49:23;98280.66;;;29.12;89.91
29907;BME280;16776;50.958;10.994;2023-06-26T07:51:51;98276.84;;;29.23;90.36
29907;BME280;16776;50.958;10.994;2023-06-26T07:54:18;98280.66;;;29.36;89.54
29907;BME280;16776;50.958;10.994;2023-06-26T07:56:55;98275.28;;;29.60;89.86
29907;BME280;16776;50.958;10.994;2023-06-26T07:59:22;98276.56;;;29.65;90.16
29907;BME280;16776;50.958;10.994;2023-06-26T08:01:52;98277.19;;;29.83;89.39
29907;BME280;16776;50.958;10.994;2023-06-26T08:04:19;98266.22;;;29.94;87.84
29907;BME280;16776;50.958;10.994;2023-06-26T08:06:47;98266.28;;;30.09;87.57
29907;BME280;16776;50.958;10.994;2023-06-26T08:09:14;98254.97;;;30.15;87.71
29907;BME280;16776;50.958;10.994;2023-06-26T08:11:41;98258.63;;;30.22;86.89
29907;BME280;16776;50.958;10.994;2023-06-26T08:14:10;98252.09;;;30.32;86.86
29907;BME280;16776;50.958;10.994;2023-06-26T08:16:38;98255.75;;;30.31;86.49
29907;BME280;16776;50.958;10.994;2023-06-26T08:19:06;98256.88;;;30.37;86.03
29907;BME280;16776;50.958;10.994;2023-06-26T08:21:32;98259.53;;;30.37;86.62
29907;BME280;16776;50.958;10.994;2023-06-26T08:23:59;98257.34;;;30.41;86.66
29907;BME280;16776;50.958;10.994;2023-06-26T08:26:25;98252.97;;;30.48;86.81
29907;BME280;16776;50.958;10.994;2023-06-26T08:28:52;98250.72;;;30.59;87.84
29907;BME280;16776;50.958;10.994;2023-06-26T08:31:21;98252.47;;;30.75;87.87
29907;BME280;16776;50.958;10.994;2023-06-26T08:33:48;98255.00;;;30.91;86.42
29907;BME280;16776;50.958;10.994;2023-06-26T08:36:16;98260.84;;;31.09;86.76
29907;BME280;16776;50.958;10.994;2023-06-26T08:38:43;98253.91;;;31.23;85.33
29907;BME280;16776;50.958;10.994;2023-06-26T08:41:09;98256.94;;;31.35;85.26
29907;BME280;16776;50.958;10.994;2023-06-26T08:43:36;98247.78;;;31.52;85.43
29907;BME280;16776;50.958;10.994;2023-06-26T08:46:03;98253.13;;;31.67;85.36
29907;BME280;16776;50.958;10.994;2023-06-26T08:48:32;98253.09;;;31.81;84.67
29907;BME280;16776;50.958;10.994;2023-06-26T08:51:01;98257.13;;;31.92;84.55
29907;BME280;16776;50.958;10.994;2023-06-26T08:53:40;98253.81;;;32.05;84.41
29907;BME280;16776;50.958;10.994;2023-06-26T08:56:14;98250.44;;;32.11;84.98
29907;BME280;16776;50.958;10.994;2023-06-26T08:58:46;98246.00;;;32.18;84.03
29907;BME280;16776;50.958;10.994;2023-06-26T09:01:13;98249.34;;;32.26;83.39
29907;BME280;16776;50.958;10.994;2023-06-26T09:03:40;98244.91;;;32.33;83.22
29907;BME280;16776;50.958;10.994;2023-06-26T09:06:07;98247.66;;;32.40;84.00
29907;BME280;16776;50.958;10.994;2023-06-26T09:08:38;98247.97;;;32.52;83.49
29907;BME280;16776;50.958;10.994;2023-06-26T09:11:05;98249.72;;;32.59;83.43
29907;BME280;16776;50.958;10.994;2023-06-26T09:13:32;98246.75;;;32.69;82.23
29907;BME280;16776;50.958;10.994;2023-06-26T09:15:58;98241.47;;;32.76;82.56
29907;BME280;16776;50.958;10.994;2023-06-26T09:18:25;98246.03;;;32.82;82.44
29907;BME280;16776;50.958;10.994;2023-06-26T09:20:52;98250.41;;;32.89;82.02
29907;BME280;16776;50.958;10.994;2023-06-26T09:23:21;98246.38;;;33.00;82.15
29907;BME280;16776;50.958;10.994;2023-06-26T09:25:51;98249.31;;;33.05;81.96
29907;BME280;16776;50.958;10.994;2023-06-26T09:28:18;98250.34;;;33.04;81.10
29907;BME280;16776;50.958;10.994;2023-06-26T09:30:45;98249.97;;;33.07;79.91
29907;BME280;16776;50.958;10.994;2023-06-26T09:33:15;98238.72;;;33.11;81.08
29907;BME280;16776;50.958;10.994;2023-06-26T09:35:42;98240.88;;;33.01;80.73
29907;BME280;16776;50.958;10.994;2023-06-26T09:38:13;98244.63;;;33.07;80.77
29907;BME280;16776;50.958;10.994;2023-06-26T09:40:40;98247.88;;;33.02;80.47
29907;BME280;16776;50.958;10.994;2023-06-26T09:43:09;98240.13;;;33.07;79.73
29907;BME280;16776;50.958;10.994;2023-06-26T09:45:39;98240.94;;;33.08;81.78
29907;BME280;16776;50.958;10.994;2023-06-26T09:48:07;98243.25;;;32.96;80.97
29907;BME280;16776;50.958;10.994;2023-06-26T09:50:34;98240.22;;;32.99;81.04
29907;BME280;16776;50.958;10.994;2023-06-26T09:53:07;98243.44;;;33.16;80.80
29907;BME280;16776;50.958;10.994;2023-06-26T09:55:34;98236.09;;;33.18;80.79
29907;BME280;16776;50.958;10.994;2023-06-26T09:58:02;98238.19;;;33.29;80.68
29907;BME280;16776;50.958;10.994;2023-06-26T10:00:37;98238.28;;;33.42;80.87
29907;BME280;16776;50.958;10.994;2023-06-26T10:03:06;98235.69;;;33.49;80.46
29907;BME280;16776;50.958;10.994;2023-06-26T10:05:33;98233.06;;;33.56;79.94
29907;BME280;16776;50.958;10.994;2023-06-26T10:08:04;98230.66;;;33.74;80.38
29907;BME280;16776;50.958;10.994;2023-06-26T10:10:32;98228.44;;;33.77;80.25
29907;BME280;16776;50.958;10.994;2023-06-26T10:13:04;98228.69;;;33.89;80.26
29907;BME280;16776;50.958;10.994;2023-06-26T10:15:35;98226.72;;;33.98;80.16
29907;BME280;16776;50.958;10.994;2023-06-26T10:18:03;98224.63;;;34.00;79.01
29907;BME280;16776;50.958;10.994;2023-06-26T10:20:31;98214.38;;;34.03;78.59
29907;BME280;16776;50.958;10.994;2023-06-26T10:23:00;98204.53;;;34.10;78.98
29907;BME280;16776;50.958;10.994;2023-06-26T10:25:30;98207.81;;;34.12;79.58
29907;BME280;16776;50.958;10.994;2023-06-26T10:27:59;98197.97;;;34.19;78.67
29907;BME280;16776;50.958;10.994;2023-06-26T10:30:31;98203.13;;;34.21;78.76
29907;BME280;16776;50.958;10.994;2023-06-26T10:33:03;98203.53;;;34.24;78.11
29907;BME280;16776;50.958;10.994;2023-06-26T10:35:31;98196.13;;;34.20;77.52
29907;BME280;16776;50.958;10.994;2023-06-26T10:38:01;98199.00;;;34.25;78.33
29907;BME280;16776;50.958;10.994;2023-06-26T10:40:40;98192.03;;;34.31;78.05
29907;BME280;16776;50.958;10.994;2023-06-26T10:43:13;98192.81;;;34.24;78.32
29907;BME280;16776;50.958;10.994;2023-06-26T10:45:44;98184.63;;;34.26;77.68
29907;BME280;16776;50.958;10.994;2023-06-26T10:48:14;98177.84;;;34.23;77.87
29907;BME280;16776;50.958;10.994;2023-06-26T10:50:43;98176.59;;;34.26;78.21
29907;BME280;16776;50.958;10.994;2023-06-26T10:53:12;98180.72;;;34.28;77.60
29907;BME280;16776;50.958;10.994;2023-06-26T10:55:48;98173.56;;;34.36;77.33
29907;BME280;16776;50.958;10.994;2023-06-26T10:58:32;98171.06;;;34.34;76.89
29907;BME280;16776;50.958;10.994;2023-06-26T11:01:17;98167.97;;;34.31;78.07
29907;BME280;16776;50.958;10.994;2023-06-26T11:03:47;98168.56;;;34.19;76.91
29907;BME280;16776;50.958;10.994;2023-06-26T11:06:16;98159.72;;;34.12;76.90
29907;BME280;16776;50.958;10.994;2023-06-26T11:08:48;98158.50;;;34.15;77.39
29907;BME280;16776;50.958;10.994;2023-06-26T11:11:15;98153.13;;;34.08;77.12
29907;BME280;16776;50.958;10.994;2023-06-26T11:13:42;98153.13;;;34.08;76.70
29907;BME280;16776;50.958;10.994;2023-06-26T11:16:13;98158.88;;;34.12;77.20
29907;BME280;16776;50.958;10.994;2023-06-26T11:18:42;98156.44;;;34.10;77.31
29907;BME280;16776;50.958;10.994;2023-06-26T11:21:11;98152.31;;;34.14;77.25
29907;BME280;16776;50.958;10.994;2023-06-26T11:23:40;98162.00;;;34.15;77.31
29907;BME280;16776;50.958;10.994;2023-06-26T11:26:13;98161.56;;;34.18;76.84
29907;BME280;16776;50.958;10.994;2023-06-26T11:28:46;98164.66;;;34.15;75.82
29907;BME280;16776;50.958;10.994;2023-06-26T11:31:29;98159.31;;;34.09;76.80
29907;BME280;16776;50.958;10.994;2023-06-26T11:33:57;98160.25;;;33.88;77.12
29907;BME280;16776;50.958;10.994;2023-06-26T11:36:26;98164.97;;;33.86;77.17
29907;BME280;16776;50.958;10.994;2023-06-26T11:38:53;98159.00;;;33.84;76.73
29907;BME280;16776;50.958;10.994;2023-06-26T11:41:22;98159.63;;;33.86;77.07
29907;BME280;16776;50.958;10.994;2023-06-26T11:43:49;98154.72;;;33.89;76.35
29907;BME280;16776;50.958;10.994;2023-06-26T11:46:21;98163.41;;;33.98;76.28
29907;BME280;16776;50.958;10.994;2023-06-26T11:48:48;98161.25;;;33.87;75.67
29907;BME280;16776;50.958;10.994;2023-06-26T11:51:15;98157.34;;;33.76;75.48
29907;BME280;16776;50.958;10.994;2023-06-26T11:53:44;98156.50;;;33.69;75.63
29907;BME280;16776;50.958;10.994;2023-06-26T11:56:12;98141.78;;;33.45;75.58
29907;BME280;16776;50.958;10.994;2023-06-26T11:58:57;98154.22;;;33.60;76.23
29907;BME280;16776;50.958;10.994;2023-06-26T12:01:24;98151.63;;;33.38;75.68
29907;BME280;16776;50.958;10.994;2023-06-26T12:03:53;98159.00;;;33.36;75.31
29907;BME280;16776;50.958;10.994;2023-06-26T12:06:20;98155.06;;;33.32;75.24
29907;BME280;16776;50.958;10.994;2023-06-26T12:08:48;98154.44;;;33.30;75.35
29907;BME280;16776;50.958;10.994;2023-06-26T12:11:16;98149.25;;;33.22;74.84
29907;BME280;16776;50.958;10.994;2023-06-26T12:13:43;98139.00;;;33.19;74.60
29907;BME280;16776;50.958;10.994;2023-06-26T12:16:12;98140.19;;;33.17;74.65
29907;BME280;16776;50.958;10.994;2023-06-26T12:18:38;98149.44;;;33.14;74.80
29907;BME280;16776;50.958;10.994;2023-06-26T12:21:05;98139.56;;;33.08;74.48
29907;BME280;16776;50.958;10.994;2023-06-26T12:23:32;98150.78;;;33.03;74.60
29907;BME280;16776;50.958;10.994;2023-06-26T12:29:04;98150.91;;;32.89;74.84
29907;BME280;16776;50.958;10.994;2023-06-26T12:31:31;98151.59;;;32.69;74.89
29907;BME280;16776;50.958;10.994;2023-06-26T12:33:59;98159.72;;;32.61;75.07
29907;BME280;16776;50.958;10.994;2023-06-26T12:36:27;98151.91;;;32.60;75.48
29907;BME280;16776;50.958;10.994;2023-06-26T12:38:55;98157.16;;;32.53;75.23
29907;BME280;16776;50.958;10.994;2023-06-26T12:41:24;98154.66;;;32.52;75.66
29907;BME280;16776;50.958;10.994;2023-06-26T12:43:55;98162.88;;;32.50;75.97
29907;BME280;16776;50.958;10.994;2023-06-26T12:46:34;98166.94;;;32.46;75.64
29907;BME280;16776;50.958;10.994;2023-06-26T12:49:01;98171.88;;;32.28;76.96
29907;BME280;16776;50.958;10.994;2023-06-26T12:51:28;98171.81;;;32.21;76.80
29907;BME280;16776;50.958;10.994;2023-06-26T12:53:56;98175.72;;;32.19;76.76
29907;BME280;16776;50.958;10.994;2023-06-26T12:56:26;98174.91;;;32.04;77.16
29907;BME280;16776;50.958;10.994;2023-06-26T12:58:52;98176.22;;;31.93;77.32